sensor_id;sensor_type;location;lat;lon;timestamp;P1;durP1;ratioP1;P2;durP2;ratioP2
50355;SDS011;36264;51.296;-0.602;2022-08-20T00:00:33;3.10;;;1.20;;
50355;SDS011;36264;51.296;-0.602;2022-08-20T00:03:08;2.90;;;1.00;;
50355;SDS011;36264;51.296;-0.602;2022-08-20T00:05:49;1.77;;;0.90;;
50355;SDS011;36264;51.296;-0.602;2022-08-20T00:08:18;1.70;;;1.13;;
50355;SDS011;36264;51.296;-0.602;2022-08-20T00:10:46;2.75;;;1.15;;
50355;SDS011;36264;51.296;-0.602;2022-08-20T00:13:16;3.67;;;1.40;;
50355;SDS011;36264;51.296;-0.602;2022-08-20T00:15:44;3.83;;;1.23;;
50355;SDS011;36264;51.296;-0.602;2022-08-20T00:18:10;5.10;;;1.60;;
50355;SDS011;36264;51.296;-0.602;2022-08-20T00:20:37;3.40;;;1.13;;
50355;SDS011;36264;51.296;-0.602;2022-08-20T00:23:05;1.95;;;1.08;;
50355;SDS011;36264;51.296;-0.602;2022-08-20T00:25:31;2.72;;;1.20;;
50355;SDS011;36264;51.296;-0.602;2022-08-20T00:27:57;4.05;;;1.30;;
50355;SDS011;36264;51.296;-0.602;2022-08-20T00:30:23;5.72;;;1.50;;
50355;SDS011;36264;51.296;-0.602;2022-08-20T00:32:54;4.00;;;1.50;;
50355;SDS011;36264;51.296;-0.602;2022-08-20T00:35:23;1.73;;;0.95;;
50355;SDS011;36264;51.296;-0.602;2022-08-20T00:37:51;2.17;;;1.20;;
50355;SDS011;36264;51.296;-0.602;2022-08-20T00:40:19;3.00;;;1.40;;
50355;SDS011;36264;51.296;-0.602;2022-08-20T00:42:51;2.42;;;1.20;;
50355;SDS011;36264;51.296;-0.602;2022-08-20T00:45:21;1.15;;;1.00;;
50355;SDS011;36264;51.296;-0.602;2022-08-20T00:47:47;2.40;;;1.20;;
50355;SDS011;36264;51.296;-0.602;2022-08-20T00:50:16;1.70;;;1.10;;
50355;SDS011;36264;51.296;-0.602;2022-08-20T00:52:47;2.47;;;1.13;;
50355;SDS011;36264;51.296;-0.602;2022-08-20T00:55:15;4.10;;;1.50;;
50355;SDS011;36264;51.296;-0.602;2022-08-20T00:57:42;3.55;;;1.48;;
50355;SDS011;36264;51.296;-0.602;2022-08-20T01:00:18;4.50;;;1.42;;
50355;SDS011;36264;51.296;-0.602;2022-08-20T01:02:47;3.58;;;1.38;;
50355;SDS011;36264;51.296;-0.602;2022-08-20T01:05:14;3.30;;;1.20;;
50355;SDS011;36264;51.296;-0.602;2022-08-20T01:07:40;3.92;;;1.27;;
50355;SDS011;36264;51.296;-0.602;2022-08-20T01:10:10;2.88;;;1.30;;
50355;SDS011;36264;51.296;-0.602;2022-08-20T01:12:38;1.85;;;1.10;;
50355;SDS011;36264;51.296;-0.602;2022-08-20T01:15:06;3.75;;;1.30;;
50355;SDS011;36264;51.296;-0.602;2022-08-20T01:17:36;2.88;;;1.33;;
50355;SDS011;36264;51.296;-0.602;2022-08-20T01:20:11;2.13;;;1.23;;
50355;SDS011;36264;51.296;-0.602;2022-08-20T01:22:42;4.03;;;1.38;;
50355;SDS011;36264;51.296;-0.602;2022-08-20T01:28:43;2.70;;;1.10;;
50355;SDS011;36264;51.296;-0.602;2022-08-20T01:31:16;2.35;;;1.10;;
50355;SDS011;36264;51.296;-0.602;2022-08-20T01:33:43;2.92;;;1.30;;
50355;SDS011;36264;51.296;-0.602;2022-08-20T01:36:10;4.38;;;1.40;;
50355;SDS011;36264;51.296;-0.602;2022-08-20T01:38:38;3.15;;;1.38;;
50355;SDS011;36264;51.296;-0.602;2022-08-20T01:44:07;2.92;;;1.30;;
50355;SDS011;36264;51.296;-0.602;2022-08-20T01:46:36;4.72;;;1.20;;
50355;SDS011;36264;51.296;-0.602;2022-08-20T01:49:06;4.68;;;1.40;;
50355;SDS011;36264;51.296;-0.602;2022-08-20T01:51:37;2.92;;;1.20;;
50355;SDS011;36264;51.296;-0.602;2022-08-20T01:54:02;3.70;;;1.20;;
50355;SDS011;36264;51.296;-0.602;2022-08-20T01:56:29;1.55;;;1.10;;
50355;SDS011;36264;51.296;-0.602;2022-08-20T01:58:56;1.38;;;0.98;;
50355;SDS011;36264;51.296;-0.602;2022-08-20T02:01:31;1.77;;;1.00;;
50355;SDS011;36264;51.296;-0.602;2022-08-20T02:04:03;1.85;;;1.00;;
50355;SDS011;36264;51.296;-0.602;2022-08-20T02:06:31;2.78;;;1.13;;
50355;SDS011;36264;51.296;-0.602;2022-08-20T02:09:00;2.70;;;1.08;;
50355;SDS011;36264;51.296;-0.602;2022-08-20T02:11:28;3.20;;;1.00;;
50355;SDS011;36264;51.296;-0.602;2022-08-20T02:13:54;3.72;;;1.20;;
50355;SDS011;36264;51.296;-0.602;2022-08-20T02:16:30;2.60;;;1.30;;
50355;SDS011;36264;51.296;-0.602;2022-08-20T02:18:59;2.22;;;1.00;;
50355;SDS011;36264;51.296;-0.602;2022-08-20T02:21:28;4.05;;;1.30;;
50355;SDS011;36264;51.296;-0.602;2022-08-20T02:23:56;4.03;;;1.10;;
50355;SDS011;36264;51.296;-0.602;2022-08-20T02:26:22;2.83;;;1.02;;
50355;SDS011;36264;51.296;-0.602;2022-08-20T02:28:48;1.75;;;1.05;;
50355;SDS011;36264;51.296;-0.602;2022-08-20T02:31:15;2.58;;;1.00;;
50355;SDS011;36264;51.296;-0.602;2022-08-20T02:33:42;2.33;;;0.85;;
50355;SDS011;36264;51.296;-0.602;2022-08-20T02:36:08;2.95;;;1.10;;
50355;SDS011;36264;51.296;-0.602;2022-08-20T02:38:36;1.80;;;1.00;;
50355;SDS011;36264;51.296;-0.602;2022-08-20T02:41:03;2.05;;;1.17;;
50355;SDS011;36264;51.296;-0.602;2022-08-20T02:43:29;2.10;;;1.10;;
50355;SDS011;36264;51.296;-0.602;2022-08-20T02:45:56;2.22;;;1.20;;
50355;SDS011;36264;51.296;-0.602;2022-08-20T02:48:21;1.52;;;1.00;;
50355;SDS011;36264;51.296;-0.602;2022-08-20T02:50:54;1.63;;;1.00;;
50355;SDS011;36264;51.296;-0.602;2022-08-20T02:53:22;3.83;;;1.27;;
50355;SDS011;36264;51.296;-0.602;2022-08-20T02:55:48;3.45;;;1.20;;
50355;SDS011;36264;51.296;-0.602;2022-08-20T02:58:14;3.10;;;1.08;;
50355;SDS011;36264;51.296;-0.602;2022-08-20T03:00:40;1.60;;;0.98;;
50355;SDS011;36264;51.296;-0.602;2022-08-20T03:03:07;2.78;;;1.25;;
50355;SDS011;36264;51.296;-0.602;2022-08-20T03:05:34;3.97;;;1.30;;
50355;SDS011;36264;51.296;-0.602;2022-08-20T03:08:00;1.38;;;0.80;;
50355;SDS011;36264;51.296;-0.602;2022-08-20T03:10:28;2.00;;;0.90;;
50355;SDS011;36264;51.296;-0.602;2022-08-20T03:12:57;3.10;;;1.30;;
50355;SDS011;36264;51.296;-0.602;2022-08-20T03:15:25;2.38;;;1.20;;
50355;SDS011;36264;51.296;-0.602;2022-08-20T03:17:51;4.65;;;1.10;;
50355;SDS011;36264;51.296;-0.602;2022-08-20T03:20:16;3.53;;;1.20;;
50355;SDS011;36264;51.296;-0.602;2022-08-20T03:22:42;1.48;;;0.93;;
50355;SDS011;36264;51.296;-0.602;2022-08-20T03:25:08;3.25;;;1.23;;
50355;SDS011;36264;51.296;-0.602;2022-08-20T03:27:34;3.75;;;1.10;;
50355;SDS011;36264;51.296;-0.602;2022-08-20T03:29:59;1.40;;;1.10;;
50355;SDS011;36264;51.296;-0.602;2022-08-20T03:32:25;2.53;;;1.20;;
50355;SDS011;36264;51.296;-0.602;2022-08-20T03:34:50;3.53;;;1.45;;
50355;SDS011;36264;51.296;-0.602;2022-08-20T03:37:15;2.85;;;1.30;;
50355;SDS011;36264;51.296;-0.602;2022-08-20T03:39:41;3.30;;;1.42;;
50355;SDS011;36264;51.296;-0.602;2022-08-20T03:42:06;3.80;;;1.30;;
50355;SDS011;36264;51.296;-0.602;2022-08-20T03:44:32;3.67;;;1.20;;
50355;SDS011;36264;51.296;-0.602;2022-08-20T03:46:58;3.65;;;1.33;;
50355;SDS011;36264;51.296;-0.602;2022-08-20T03:49:23;2.70;;;1.10;;
50355;SDS011;36264;51.296;-0.602;2022-08-20T03:51:49;2.38;;;1.20;;
50355;SDS011;36264;51.296;-0.602;2022-08-20T03:54:15;3.60;;;1.02;;
50355;SDS011;36264;51.296;-0.602;2022-08-20T03:56:40;3.40;;;1.25;;
50355;SDS011;36264;51.296;-0.602;2022-08-20T03:59:06;2.35;;;1.40;;
50355;SDS011;36264;51.296;-0.602;2022-08-20T04:01:32;2.60;;;1.20;;
50355;SDS011;36264;51.296;-0.602;2022-08-20T04:03:57;5.30;;;1.40;;
50355;SDS011;36264;51.296;-0.602;2022-08-20T04:06:23;2.47;;;1.20;;
50355;SDS011;36264;51.296;-0.602;2022-08-20T04:08:49;2.08;;;1.17;;
50355;SDS011;36264;51.296;-0.602;2022-08-20T04:11:15;3.20;;;1.20;;
50355;SDS011;36264;51.296;-0.602;2022-08-20T04:13:40;2.72;;;1.38;;
50355;SDS011;36264;51.296;-0.602;2022-08-20T04:16:06;3.38;;;1.40;;
50355;SDS011;36264;51.296;-0.602;2022-08-20T04:18:34;1.50;;;1.00;;
50355;SDS011;36264;51.296;-0.602;2022-08-20T04:21:01;2.42;;;1.27;;
50355;SDS011;36264;51.296;-0.602;2022-08-20T04:23:27;1.20;;;1.00;;
50355;SDS011;36264;51.296;-0.602;2022-08-20T04:25:54;1.88;;;1.20;;
50355;SDS011;36264;51.296;-0.602;2022-08-20T04:28:20;3.47;;;1.30;;
50355;SDS011;36264;51.296;-0.602;2022-08-20T04:30:51;2.90;;;1.25;;
50355;SDS011;36264;51.296;-0.602;2022-08-20T04:33:19;5.03;;;1.35;;
50355;SDS011;36264;51.296;-0.602;2022-08-20T04:35:46;2.88;;;1.30;;
50355;SDS011;36264;51.296;-0.602;2022-08-20T04:38:14;2.83;;;1.17;;
50355;SDS011;36264;51.296;-0.602;2022-08-20T04:40:41;3.70;;;1.30;;
50355;SDS011;36264;51.296;-0.602;2022-08-20T04:43:23;2.95;;;1.30;;
50355;SDS011;36264;51.296;-0.602;2022-08-20T04:45:48;3.85;;;1.20;;
50355;SDS011;36264;51.296;-0.602;2022-08-20T04:48:15;3.88;;;1.33;;
50355;SDS011;36264;51.296;-0.602;2022-08-20T04:50:43;1.27;;;1.00;;
50355;SDS011;36264;51.296;-0.602;2022-08-20T04:53:11;1.55;;;1.08;;
50355;SDS011;36264;51.296;-0.602;2022-08-20T04:55:39;2.38;;;1.13;;
50355;SDS011;36264;51.296;-0.602;2022-08-20T04:58:11;2.42;;;1.00;;
50355;SDS011;36264;51.296;-0.602;2022-08-20T05:00:43;3.67;;;1.23;;
50355;SDS011;36264;51.296;-0.602;2022-08-20T05:03:09;2.17;;;1.30;;
50355;SDS011;36264;51.296;-0.602;2022-08-20T05:05:36;3.13;;;1.33;;
50355;SDS011;36264;51.296;-0.602;2022-08-20T05:08:01;2.70;;;1.20;;
50355;SDS011;36264;51.296;-0.602;2022-08-20T05:10:28;2.00;;;1.20;;
50355;SDS011;36264;51.296;-0.602;2022-08-20T05:12:53;4.45;;;0.98;;
50355;SDS011;36264;51.296;-0.602;2022-08-20T05:15:19;0.90;;;0.73;;
50355;SDS011;36264;51.296;-0.602;2022-08-20T05:17:44;1.85;;;1.00;;
50355;SDS011;36264;51.296;-0.602;2022-08-20T05:20:12;2.55;;;1.15;;
50355;SDS011;36264;51.296;-0.602;2022-08-20T05:22:40;2.45;;;1.10;;
50355;SDS011;36264;51.296;-0.602;2022-08-20T05:25:06;1.70;;;1.10;;
50355;SDS011;36264;51.296;-0.602;2022-08-20T05:27:32;2.25;;;1.10;;
50355;SDS011;36264;51.296;-0.602;2022-08-20T05:30:05;3.17;;;1.27;;
50355;SDS011;36264;51.296;-0.602;2022-08-20T05:32:32;3.83;;;1.25;;
50355;SDS011;36264;51.296;-0.602;2022-08-20T05:34:59;2.00;;;1.20;;
50355;SDS011;36264;51.296;-0.602;2022-08-20T05:37:25;1.52;;;1.10;;
50355;SDS011;36264;51.296;-0.602;2022-08-20T05:39:50;2.28;;;0.88;;
50355;SDS011;36264;51.296;-0.602;2022-08-20T05:42:16;3.55;;;1.30;;
50355;SDS011;36264;51.296;-0.602;2022-08-20T05:44:42;2.13;;;1.05;;
50355;SDS011;36264;51.296;-0.602;2022-08-20T05:47:07;2.33;;;1.00;;
50355;SDS011;36264;51.296;-0.602;2022-08-20T05:49:34;2.38;;;1.08;;
50355;SDS011;36264;51.296;-0.602;2022-08-20T05:51:59;2.15;;;1.25;;
50355;SDS011;36264;51.296;-0.602;2022-08-20T05:54:25;1.75;;;1.10;;
50355;SDS011;36264;51.296;-0.602;2022-08-20T05:56:50;4.03;;;1.40;;
50355;SDS011;36264;51.296;-0.602;2022-08-20T05:59:16;2.10;;;1.20;;
50355;SDS011;36264;51.296;-0.602;2022-08-20T06:01:41;1.95;;;1.00;;
50355;SDS011;36264;51.296;-0.602;2022-08-20T06:04:07;3.17;;;1.35;;
50355;SDS011;36264;51.296;-0.602;2022-08-20T06:06:49;2.35;;;1.23;;
50355;SDS011;36264;51.296;-0.602;2022-08-20T06:09:17;2.60;;;1.30;;
50355;SDS011;36264;51.296;-0.602;2022-08-20T06:11:45;4.15;;;1.40;;
50355;SDS011;36264;51.296;-0.602;2022-08-20T06:14:10;2.85;;;1.40;;
50355;SDS011;36264;51.296;-0.602;2022-08-20T06:16:36;4.57;;;1.58;;
50355;SDS011;36264;51.296;-0.602;2022-08-20T06:19:01;5.43;;;1.58;;
50355;SDS011;36264;51.296;-0.602;2022-08-20T06:21:27;4.75;;;1.63;;
50355;SDS011;36264;51.296;-0.602;2022-08-20T06:23:52;4.05;;;1.55;;
50355;SDS011;36264;51.296;-0.602;2022-08-20T06:26:18;6.68;;;1.30;;
50355;SDS011;36264;51.296;-0.602;2022-08-20T06:28:43;8.18;;;1.52;;
50355;SDS011;36264;51.296;-0.602;2022-08-20T06:31:09;3.55;;;1.35;;
50355;SDS011;36264;51.296;-0.602;2022-08-20T06:33:35;3.55;;;1.30;;
50355;SDS011;36264;51.296;-0.602;2022-08-20T06:36:00;2.92;;;1.38;;
50355;SDS011;36264;51.296;-0.602;2022-08-20T06:38:26;5.88;;;1.83;;
50355;SDS011;36264;51.296;-0.602;2022-08-20T06:40:51;6.45;;;1.73;;
50355;SDS011;36264;51.296;-0.602;2022-08-20T06:43:17;4.40;;;1.42;;
50355;SDS011;36264;51.296;-0.602;2022-08-20T06:45:42;6.13;;;1.70;;
50355;SDS011;36264;51.296;-0.602;2022-08-20T06:48:09;7.03;;;1.67;;
50355;SDS011;36264;51.296;-0.602;2022-08-20T06:50:41;5.40;;;1.70;;
50355;SDS011;36264;51.296;-0.602;2022-08-20T06:53:09;4.43;;;1.50;;
50355;SDS011;36264;51.296;-0.602;2022-08-20T06:55:36;4.63;;;1.40;;
50355;SDS011;36264;51.296;-0.602;2022-08-20T06:58:06;4.32;;;1.40;;
50355;SDS011;36264;51.296;-0.602;2022-08-20T07:00:34;5.90;;;1.95;;
50355;SDS011;36264;51.296;-0.602;2022-08-20T07:03:00;7.72;;;1.75;;
50355;SDS011;36264;51.296;-0.602;2022-08-20T07:05:27;7.40;;;1.70;;
50355;SDS011;36264;51.296;-0.602;2022-08-20T07:07:53;4.82;;;1.80;;
50355;SDS011;36264;51.296;-0.602;2022-08-20T07:10:19;5.25;;;1.45;;
50355;SDS011;36264;51.296;-0.602;2022-08-20T07:12:45;4.03;;;1.40;;
50355;SDS011;36264;51.296;-0.602;2022-08-20T07:15:13;4.80;;;1.52;;
50355;SDS011;36264;51.296;-0.602;2022-08-20T07:17:39;4.82;;;1.50;;
50355;SDS011;36264;51.296;-0.602;2022-08-20T07:20:05;5.88;;;1.60;;
50355;SDS011;36264;51.296;-0.602;2022-08-20T07:22:33;5.70;;;1.50;;
50355;SDS011;36264;51.296;-0.602;2022-08-20T07:25:02;5.30;;;1.67;;
50355;SDS011;36264;51.296;-0.602;2022-08-20T07:27:30;9.07;;;1.70;;
50355;SDS011;36264;51.296;-0.602;2022-08-20T07:29:55;7.30;;;1.63;;
50355;SDS011;36264;51.296;-0.602;2022-08-20T07:32:39;5.70;;;1.60;;
50355;SDS011;36264;51.296;-0.602;2022-08-20T07:35:06;4.57;;;1.70;;
50355;SDS011;36264;51.296;-0.602;2022-08-20T07:37:37;6.53;;;1.60;;
50355;SDS011;36264;51.296;-0.602;2022-08-20T07:40:05;7.22;;;2.00;;
50355;SDS011;36264;51.296;-0.602;2022-08-20T07:42:34;7.07;;;1.70;;
50355;SDS011;36264;51.296;-0.602;2022-08-20T07:45:03;5.78;;;1.80;;
50355;SDS011;36264;51.296;-0.602;2022-08-20T07:47:30;7.50;;;2.13;;
50355;SDS011;36264;51.296;-0.602;2022-08-20T07:49:55;6.82;;;1.90;;
50355;SDS011;36264;51.296;-0.602;2022-08-20T07:52:20;5.50;;;1.60;;
50355;SDS011;36264;51.296;-0.602;2022-08-20T07:54:46;5.50;;;1.77;;
50355;SDS011;36264;51.296;-0.602;2022-08-20T07:57:11;5.70;;;1.70;;
50355;SDS011;36264;51.296;-0.602;2022-08-20T07:59:36;5.38;;;1.90;;
50355;SDS011;36264;51.296;-0.602;2022-08-20T08:02:02;5.10;;;1.50;;
50355;SDS011;36264;51.296;-0.602;2022-08-20T08:04:28;6.65;;;1.85;;
50355;SDS011;36264;51.296;-0.602;2022-08-20T08:06:54;6.72;;;2.03;;
50355;SDS011;36264;51.296;-0.602;2022-08-20T08:09:23;5.60;;;1.73;;
50355;SDS011;36264;51.296;-0.602;2022-08-20T08:11:50;7.25;;;1.70;;
50355;SDS011;36264;51.296;-0.602;2022-08-20T08:14:19;8.05;;;1.92;;
50355;SDS011;36264;51.296;-0.602;2022-08-20T08:16:48;6.50;;;1.55;;
50355;SDS011;36264;51.296;-0.602;2022-08-20T08:19:14;6.60;;;1.95;;
50355;SDS011;36264;51.296;-0.602;2022-08-20T08:21:41;4.97;;;1.60;;
50355;SDS011;36264;51.296;-0.602;2022-08-20T08:24:08;7.50;;;2.10;;
50355;SDS011;36264;51.296;-0.602;2022-08-20T08:26:35;6.68;;;2.08;;
50355;SDS011;36264;51.296;-0.602;2022-08-20T08:29:01;6.07;;;1.67;;
50355;SDS011;36264;51.296;-0.602;2022-08-20T08:31:26;4.88;;;1.70;;
50355;SDS011;36264;51.296;-0.602;2022-08-20T08:33:52;4.75;;;1.58;;
50355;SDS011;36264;51.296;-0.602;2022-08-20T08:36:17;4.25;;;1.80;;
50355;SDS011;36264;51.296;-0.602;2022-08-20T08:38:43;6.78;;;1.85;;
50355;SDS011;36264;51.296;-0.602;2022-08-20T08:41:13;5.45;;;1.75;;
50355;SDS011;36264;51.296;-0.602;2022-08-20T08:43:46;5.00;;;1.70;;
50355;SDS011;36264;51.296;-0.602;2022-08-20T08:46:14;7.10;;;1.75;;
50355;SDS011;36264;51.296;-0.602;2022-08-20T08:48:45;4.70;;;1.85;;
50355;SDS011;36264;51.296;-0.602;2022-08-20T08:51:15;4.03;;;1.40;;
50355;SDS011;36264;51.296;-0.602;2022-08-20T08:53:46;4.65;;;1.83;;
50355;SDS011;36264;51.296;-0.602;2022-08-20T08:56:18;4.43;;;1.65;;
50355;SDS011;36264;51.296;-0.602;2022-08-20T08:58:47;5.30;;;1.33;;
50355;SDS011;36264;51.296;-0.602;2022-08-20T09:01:15;11.52;;;1.90;;
50355;SDS011;36264;51.296;-0.602;2022-08-20T09:03:44;6.13;;;1.88;;
50355;SDS011;36264;51.296;-0.602;2022-08-20T09:06:16;6.90;;;2.03;;
50355;SDS011;36264;51.296;-0.602;2022-08-20T09:11:16;4.72;;;1.65;;
50355;SDS011;36264;51.296;-0.602;2022-08-20T09:13:43;5.90;;;2.20;;
50355;SDS011;36264;51.296;-0.602;2022-08-20T09:16:09;6.20;;;1.80;;
50355;SDS011;36264;51.296;-0.602;2022-08-20T09:18:35;4.97;;;1.98;;
50355;SDS011;36264;51.296;-0.602;2022-08-20T09:21:01;5.25;;;1.75;;
50355;SDS011;36264;51.296;-0.602;2022-08-20T09:23:26;5.65;;;1.80;;
50355;SDS011;36264;51.296;-0.602;2022-08-20T09:25:51;3.47;;;1.70;;
50355;SDS011;36264;51.296;-0.602;2022-08-20T09:28:17;5.60;;;1.80;;
50355;SDS011;36264;51.296;-0.602;2022-08-20T09:30:42;7.28;;;1.60;;
50355;SDS011;36264;51.296;-0.602;2022-08-20T09:33:08;4.45;;;1.80;;
50355;SDS011;36264;51.296;-0.602;2022-08-20T09:35:33;6.35;;;1.80;;
50355;SDS011;36264;51.296;-0.602;2022-08-20T09:37:59;6.65;;;2.08;;
50355;SDS011;36264;51.296;-0.602;2022-08-20T09:40:24;4.22;;;1.90;;
50355;SDS011;36264;51.296;-0.602;2022-08-20T09:42:50;3.17;;;1.38;;
50355;SDS011;36264;51.296;-0.602;2022-08-20T09:45:16;8.23;;;2.00;;
50355;SDS011;36264;51.296;-0.602;2022-08-20T09:47:41;3.05;;;1.50;;
50355;SDS011;36264;51.296;-0.602;2022-08-20T09:50:07;7.65;;;2.33;;
50355;SDS011;36264;51.296;-0.602;2022-08-20T09:52:43;3.70;;;1.60;;
50355;SDS011;36264;51.296;-0.602;2022-08-20T09:55:17;5.50;;;1.88;;
50355;SDS011;36264;51.296;-0.602;2022-08-20T09:57:46;3.95;;;1.58;;
50355;SDS011;36264;51.296;-0.602;2022-08-20T10:00:12;5.63;;;1.70;;
50355;SDS011;36264;51.296;-0.602;2022-08-20T10:02:39;2.40;;;1.50;;
50355;SDS011;36264;51.296;-0.602;2022-08-20T10:05:05;3.92;;;1.80;;
50355;SDS011;36264;51.296;-0.602;2022-08-20T10:07:31;4.75;;;1.50;;
50355;SDS011;36264;51.296;-0.602;2022-08-20T10:09:58;4.22;;;1.50;;
50355;SDS011;36264;51.296;-0.602;2022-08-20T10:12:24;6.20;;;1.50;;
50355;SDS011;36264;51.296;-0.602;2022-08-20T10:14:49;5.38;;;2.00;;
50355;SDS011;36264;51.296;-0.602;2022-08-20T10:17:15;5.85;;;1.90;;
50355;SDS011;36264;51.296;-0.602;2022-08-20T10:19:40;3.45;;;1.60;;
50355;SDS011;36264;51.296;-0.602;2022-08-20T10:22:05;4.20;;;1.60;;
50355;SDS011;36264;51.296;-0.602;2022-08-20T10:24:31;5.10;;;1.95;;
50355;SDS011;36264;51.296;-0.602;2022-08-20T10:26:57;5.25;;;1.70;;
50355;SDS011;36264;51.296;-0.602;2022-08-20T10:29:24;3.67;;;1.50;;
50355;SDS011;36264;51.296;-0.602;2022-08-20T10:31:52;4.18;;;1.60;;
50355;SDS011;36264;51.296;-0.602;2022-08-20T10:34:19;4.82;;;1.88;;
50355;SDS011;36264;51.296;-0.602;2022-08-20T10:36:44;2.95;;;1.30;;
50355;SDS011;36264;51.296;-0.602;2022-08-20T10:39:10;3.60;;;1.27;;
50355;SDS011;36264;51.296;-0.602;2022-08-20T10:41:35;3.15;;;1.50;;
50355;SDS011;36264;51.296;-0.602;2022-08-20T10:44:02;4.45;;;1.65;;
50355;SDS011;36264;51.296;-0.602;2022-08-20T10:46:28;3.85;;;1.50;;
50355;SDS011;36264;51.296;-0.602;2022-08-20T10:48:54;3.80;;;1.42;;
50355;SDS011;36264;51.296;-0.602;2022-08-20T10:51:19;3.42;;;1.65;;
50355;SDS011;36264;51.296;-0.602;2022-08-20T10:53:45;3.55;;;1.67;;
50355;SDS011;36264;51.296;-0.602;2022-08-20T10:56:10;2.85;;;1.50;;
50355;SDS011;36264;51.296;-0.602;2022-08-20T10:58:35;2.15;;;1.40;;
50355;SDS011;36264;51.296;-0.602;2022-08-20T11:01:01;3.13;;;1.50;;
50355;SDS011;36264;51.296;-0.602;2022-08-20T11:03:26;5.47;;;1.80;;
50355;SDS011;36264;51.296;-0.602;2022-08-20T11:05:52;3.67;;;1.30;;
50355;SDS011;36264;51.296;-0.602;2022-08-20T11:08:17;5.05;;;1.67;;
50355;SDS011;36264;51.296;-0.602;2022-08-20T11:10:42;3.63;;;1.50;;
50355;SDS011;36264;51.296;-0.602;2022-08-20T11:13:08;2.97;;;1.50;;
50355;SDS011;36264;51.296;-0.602;2022-08-20T11:15:36;3.45;;;1.48;;
50355;SDS011;36264;51.296;-0.602;2022-08-20T11:18:03;3.08;;;1.50;;
50355;SDS011;36264;51.296;-0.602;2022-08-20T11:20:29;2.92;;;1.60;;
50355;SDS011;36264;51.296;-0.602;2022-08-20T11:22:56;2.30;;;1.50;;
50355;SDS011;36264;51.296;-0.602;2022-08-20T11:25:22;3.50;;;1.55;;
50355;SDS011;36264;51.296;-0.602;2022-08-20T11:27:49;4.68;;;1.60;;
50355;SDS011;36264;51.296;-0.602;2022-08-20T11:30:35;2.53;;;1.23;;
50355;SDS011;36264;51.296;-0.602;2022-08-20T11:33:01;3.35;;;1.88;;
50355;SDS011;36264;51.296;-0.602;2022-08-20T11:35:29;3.55;;;1.67;;
50355;SDS011;36264;51.296;-0.602;2022-08-20T11:37:56;3.25;;;1.45;;
50355;SDS011;36264;51.296;-0.602;2022-08-20T11:40:23;4.18;;;1.50;;
50355;SDS011;36264;51.296;-0.602;2022-08-20T11:42:49;2.92;;;1.40;;
50355;SDS011;36264;51.296;-0.602;2022-08-20T11:45:15;4.70;;;1.45;;
50355;SDS011;36264;51.296;-0.602;2022-08-20T11:47:40;2.55;;;1.55;;
50355;SDS011;36264;51.296;-0.602;2022-08-20T11:50:08;4.32;;;1.90;;
50355;SDS011;36264;51.296;-0.602;2022-08-20T11:52:36;3.03;;;1.58;;
50355;SDS011;36264;51.296;-0.602;2022-08-20T11:55:03;3.15;;;1.45;;
50355;SDS011;36264;51.296;-0.602;2022-08-20T11:57:31;2.58;;;1.52;;
50355;SDS011;36264;51.296;-0.602;2022-08-20T11:59:58;2.78;;;1.33;;
50355;SDS011;36264;51.296;-0.602;2022-08-20T12:02:25;2.72;;;1.40;;
50355;SDS011;36264;51.296;-0.602;2022-08-20T12:04:51;4.45;;;1.85;;
50355;SDS011;36264;51.296;-0.602;2022-08-20T12:07:18;2.78;;;1.60;;
50355;SDS011;36264;51.296;-0.602;2022-08-20T12:09:46;3.42;;;1.50;;
50355;SDS011;36264;51.296;-0.602;2022-08-20T12:12:12;3.97;;;1.60;;
50355;SDS011;36264;51.296;-0.602;2022-08-20T12:14:39;2.47;;;1.30;;
50355;SDS011;36264;51.296;-0.602;2022-08-20T12:19:38;5.15;;;1.40;;
50355;SDS011;36264;51.296;-0.602;2022-08-20T12:22:05;2.60;;;1.35;;
50355;SDS011;36264;51.296;-0.602;2022-08-20T12:24:30;3.10;;;1.50;;
50355;SDS011;36264;51.296;-0.602;2022-08-20T12:27:07;4.78;;;1.85;;
50355;SDS011;36264;51.296;-0.602;2022-08-20T12:29:36;2.47;;;1.40;;
50355;SDS011;36264;51.296;-0.602;2022-08-20T12:32:03;3.05;;;1.48;;
50355;SDS011;36264;51.296;-0.602;2022-08-20T12:34:31;2.85;;;1.50;;
50355;SDS011;36264;51.296;-0.602;2022-08-20T12:37:01;3.13;;;1.40;;
50355;SDS011;36264;51.296;-0.602;2022-08-20T12:39:29;3.28;;;1.50;;
50355;SDS011;36264;51.296;-0.602;2022-08-20T12:41:59;3.43;;;1.60;;
50355;SDS011;36264;51.296;-0.602;2022-08-20T12:44:27;3.03;;;1.40;;
50355;SDS011;36264;51.296;-0.602;2022-08-20T12:49:45;5.53;;;2.17;;
50355;SDS011;36264;51.296;-0.602;2022-08-20T12:52:14;3.35;;;1.70;;
50355;SDS011;36264;51.296;-0.602;2022-08-20T12:54:41;2.45;;;1.40;;
50355;SDS011;36264;51.296;-0.602;2022-08-20T12:57:11;5.30;;;1.70;;
50355;SDS011;36264;51.296;-0.602;2022-08-20T12:59:39;2.40;;;1.40;;
50355;SDS011;36264;51.296;-0.602;2022-08-20T13:02:04;3.42;;;1.55;;
50355;SDS011;36264;51.296;-0.602;2022-08-20T13:04:29;3.00;;;1.40;;
50355;SDS011;36264;51.296;-0.602;2022-08-20T13:06:59;2.70;;;1.52;;
50355;SDS011;36264;51.296;-0.602;2022-08-20T13:09:27;3.13;;;1.30;;
50355;SDS011;36264;51.296;-0.602;2022-08-20T13:11:53;3.33;;;1.52;;
50355;SDS011;36264;51.296;-0.602;2022-08-20T13:14:18;5.00;;;1.40;;
50355;SDS011;36264;51.296;-0.602;2022-08-20T13:16:44;2.13;;;1.20;;
50355;SDS011;36264;51.296;-0.602;2022-08-20T13:19:09;2.10;;;1.30;;
50355;SDS011;36264;51.296;-0.602;2022-08-20T13:21:34;5.07;;;2.03;;
50355;SDS011;36264;51.296;-0.602;2022-08-20T13:24:00;3.22;;;1.50;;
50355;SDS011;36264;51.296;-0.602;2022-08-20T13:26:26;3.47;;;1.48;;
50355;SDS011;36264;51.296;-0.602;2022-08-20T13:28:51;3.22;;;1.42;;
50355;SDS011;36264;51.296;-0.602;2022-08-20T13:31:17;3.45;;;1.60;;
50355;SDS011;36264;51.296;-0.602;2022-08-20T13:33:43;3.95;;;1.80;;
50355;SDS011;36264;51.296;-0.602;2022-08-20T13:36:08;3.28;;;1.50;;
50355;SDS011;36264;51.296;-0.602;2022-08-20T13:38:34;3.15;;;1.50;;
50355;SDS011;36264;51.296;-0.602;2022-08-20T13:40:59;3.22;;;1.52;;
50355;SDS011;36264;51.296;-0.602;2022-08-20T13:43:24;4.55;;;1.95;;
50355;SDS011;36264;51.296;-0.602;2022-08-20T13:45:50;3.80;;;1.30;;
50355;SDS011;36264;51.296;-0.602;2022-08-20T13:48:15;2.22;;;1.33;;
50355;SDS011;36264;51.296;-0.602;2022-08-20T13:50:41;2.78;;;1.33;;
50355;SDS011;36264;51.296;-0.602;2022-08-20T13:53:07;2.63;;;1.50;;
50355;SDS011;36264;51.296;-0.602;2022-08-20T13:55:32;2.92;;;1.50;;
50355;SDS011;36264;51.296;-0.602;2022-08-20T13:58:02;3.55;;;1.67;;
50355;SDS011;36264;51.296;-0.602;2022-08-20T14:00:29;2.33;;;1.60;;
50355;SDS011;36264;51.296;-0.602;2022-08-20T14:02:56;2.55;;;1.50;;
50355;SDS011;36264;51.296;-0.602;2022-08-20T14:05:22;2.58;;;1.38;;
50355;SDS011;36264;51.296;-0.602;2022-08-20T14:07:48;3.00;;;1.48;;
50355;SDS011;36264;51.296;-0.602;2022-08-20T14:10:15;2.20;;;1.40;;
50355;SDS011;36264;51.296;-0.602;2022-08-20T14:12:43;2.50;;;1.20;;
50355;SDS011;36264;51.296;-0.602;2022-08-20T14:15:09;3.22;;;1.25;;
50355;SDS011;36264;51.296;-0.602;2022-08-20T14:17:36;1.85;;;1.10;;
50355;SDS011;36264;51.296;-0.602;2022-08-20T14:20:14;2.83;;;1.58;;
50355;SDS011;36264;51.296;-0.602;2022-08-20T14:22:41;3.13;;;1.48;;
50355;SDS011;36264;51.296;-0.602;2022-08-20T14:25:08;2.40;;;1.35;;
50355;SDS011;36264;51.296;-0.602;2022-08-20T14:27:36;2.97;;;1.50;;
50355;SDS011;36264;51.296;-0.602;2022-08-20T14:30:03;2.08;;;1.30;;
50355;SDS011;36264;51.296;-0.602;2022-08-20T14:32:30;2.05;;;1.30;;
50355;SDS011;36264;51.296;-0.602;2022-08-20T14:34:55;2.05;;;1.40;;
50355;SDS011;36264;51.296;-0.602;2022-08-20T14:37:24;2.80;;;1.50;;
50355;SDS011;36264;51.296;-0.602;2022-08-20T14:39:53;4.57;;;1.80;;
50355;SDS011;36264;51.296;-0.602;2022-08-20T14:42:24;3.80;;;1.80;;
50355;SDS011;36264;51.296;-0.602;2022-08-20T14:44:52;4.05;;;1.70;;
50355;SDS011;36264;51.296;-0.602;2022-08-20T14:47:19;4.68;;;1.50;;